createdAt,value
2022-11-27T00:00:57.225Z,19.73
2022-11-27T00:03:24.202Z,22.43
2022-11-27T00:05:52.218Z,21.30
2022-11-27T00:08:19.092Z,23.20
2022-11-27T00:10:45.927Z,28.40
2022-11-27T00:13:12.761Z,22.47
2022-11-27T00:15:39.693Z,22.10
2022-11-27T00:18:06.651Z,20.07
2022-11-27T00:20:33.547Z,22.30
2022-11-27T00:23:00.608Z,21.83
2022-11-27T00:25:27.430Z,20.77
2022-11-27T00:27:54.450Z,21.97
2022-11-27T00:30:21.359Z,21.50
2022-11-27T00:32:48.241Z,21.97
2022-11-27T00:35:15.222Z,21.93
2022-11-27T00:37:42.154Z,21.43
2022-11-27T00:40:09.254Z,22.10
2022-11-27T00:42:36.050Z,22.37
2022-11-27T00:45:02.953Z,24.83
2022-11-27T00:47:29.920Z,21.87
2022-11-27T00:49:57.069Z,25.47
2022-11-27T00:52:23.874Z,23.00
2022-11-27T00:54:50.930Z,24.20
2022-11-27T00:57:17.845Z,23.80
2022-11-27T00:59:44.721Z,22.33
2022-11-27T01:02:11.591Z,22.87
2022-11-27T01:04:38.603Z,21.10
2022-11-27T01:07:05.757Z,24.07
2022-11-27T01:09:32.617Z,23.43
2022-11-27T01:11:59.595Z,22.13
2022-11-27T01:14:26.389Z,21.67
2022-11-27T01:16:53.328Z,22.40
2022-11-27T01:19:20.176Z,23.47
2022-11-27T01:21:47.386Z,22.57
2022-11-27T01:24:15.191Z,23.83
2022-11-27T01:26:42.539Z,21.13
2022-11-27T01:29:09.688Z,21.27
2022-11-27T01:31:36.662Z,22.30
2022-11-27T01:34:08.749Z,21.27
2022-11-27T01:36:35.911Z,22.67
2022-11-27T01:39:02.950Z,22.93
2022-11-27T01:41:33.822Z,21.70
2022-11-27T01:44:02.249Z,22.23
2022-11-27T01:46:29.081Z,22.63
2022-11-27T01:49:16.237Z,21.73
2022-11-27T01:51:49.288Z,21.33
2022-11-27T01:54:17.228Z,22.50
2022-11-27T01:56:46.255Z,20.87
2022-11-27T01:59:13.085Z,20.27
2022-11-27T02:01:39.962Z,22.60
2022-11-27T02:04:06.847Z,22.83
2022-11-27T02:06:33.648Z,20.13
2022-11-27T02:09:00.429Z,21.10
2022-11-27T02:11:45.908Z,24.73
2022-11-27T02:14:28.552Z,23.73
2022-11-27T02:16:55.382Z,23.83
2022-11-27T02:19:25.493Z,25.23
2022-11-27T02:21:59.483Z,27.63
2022-11-27T02:24:29.084Z,25.23
2022-11-27T02:26:59.010Z,24.33
2022-11-27T02:29:27.998Z,23.70
2022-11-27T02:32:13.652Z,21.97
2022-11-27T02:34:46.283Z,21.07
2022-11-27T02:37:39.139Z,20.27
2022-11-27T02:40:14.699Z,21.87
2022-11-27T02:42:53.804Z,20.03
2022-11-27T02:45:26.822Z,20.10
2022-11-27T02:47:55.807Z,21.13
2022-11-27T02:50:23.877Z,24.10
2022-11-27T02:52:52.574Z,23.87
2022-11-27T02:55:22.348Z,23.47
2022-11-27T02:57:49.741Z,24.63
2022-11-27T03:00:17.243Z,25.60
2022-11-27T03:02:47.549Z,24.23
2022-11-27T03:05:17.847Z,26.73
2022-11-27T03:07:47.821Z,25.70
2022-11-27T03:10:19.404Z,26.37
2022-11-27T03:12:47.269Z,25.20
2022-11-27T03:15:14.248Z,26.33
2022-11-27T03:17:52.811Z,25.37
2022-11-27T03:20:21.939Z,24.27
2022-11-27T03:22:48.836Z,25.70
2022-11-27T03:25:16.762Z,22.43
2022-11-27T03:27:49.397Z,24.80
2022-11-27T03:30:16.243Z,24.77
2022-11-27T03:32:43.299Z,25.17
2022-11-27T03:35:11.933Z,24.80
2022-11-27T03:37:38.821Z,25.17
2022-11-27T03:40:07.338Z,24.87
2022-11-27T03:42:34.251Z,24.50
2022-11-27T03:45:36.526Z,22.00
2022-11-27T03:48:06.330Z,25.30
2022-11-27T03:50:46.679Z,24.80
2022-11-27T03:53:32.391Z,23.77
2022-11-27T03:56:09.756Z,22.80
2022-11-27T03:58:40.927Z,23.43
2022-11-27T04:01:11.078Z,22.50
2022-11-27T04:03:38.182Z,20.17
2022-11-27T04:06:05.333Z,20.90
2022-11-27T04:08:32.216Z,22.20
2022-11-27T04:10:59.026Z,26.13
2022-11-27T04:13:25.857Z,26.67
2022-11-27T04:15:52.753Z,27.43
2022-11-27T04:18:19.557Z,26.97
2022-11-27T04:20:46.403Z,26.40
2022-11-27T04:23:13.192Z,23.43
2022-11-27T04:25:40.124Z,26.23
2022-11-27T04:28:06.905Z,23.37
2022-11-27T04:30:34.131Z,25.30
2022-11-27T04:33:01.026Z,30.93
2022-11-27T04:35:27.891Z,28.60
2022-11-27T04:37:56.307Z,25.63
2022-11-27T04:40:23.153Z,24.80
2022-11-27T04:42:50.874Z,25.63
2022-11-27T04:45:17.744Z,25.93
2022-11-27T04:47:44.721Z,25.97
2022-11-27T04:50:11.803Z,29.03
2022-11-27T04:52:38.697Z,25.57
2022-11-27T04:55:06.473Z,23.77
2022-11-27T04:57:33.379Z,26.37
2022-11-27T05:00:00.395Z,24.77
2022-11-27T05:02:27.237Z,20.73
2022-11-27T05:04:54.128Z,24.40
2022-11-27T05:07:20.994Z,24.80
2022-11-27T05:09:47.891Z,23.63
2022-11-27T05:12:14.662Z,24.83
2022-11-27T05:14:41.836Z,25.07
2022-11-27T05:17:09.295Z,25.80
2022-11-27T05:19:36.178Z,26.27
2022-11-27T05:22:03.652Z,26.53
2022-11-27T05:24:30.499Z,24.50
2022-11-27T05:26:57.395Z,25.57
2022-11-27T05:29:24.982Z,25.13
2022-11-27T05:31:51.834Z,24.20
2022-11-27T05:34:19.127Z,27.43
2022-11-27T05:36:45.930Z,31.53
2022-11-27T05:39:12.949Z,25.07
2022-11-27T05:41:40.963Z,25.60
2022-11-27T05:44:07.810Z,23.27
2022-11-27T05:46:34.811Z,24.23
2022-11-27T05:49:01.626Z,24.20
2022-11-27T05:51:28.576Z,23.60
2022-11-27T05:53:55.496Z,23.57
2022-11-27T05:56:22.238Z,24.27
2022-11-27T05:58:49.773Z,22.93
2022-11-27T06:01:17.311Z,23.13
2022-11-27T06:03:44.491Z,22.83
2022-11-27T06:06:18.617Z,21.57
2022-11-27T06:08:46.361Z,24.13
2022-11-27T06:11:17.538Z,25.33
2022-11-27T06:13:44.969Z,27.17
2022-11-27T06:16:14.253Z,28.03
2022-11-27T06:18:41.086Z,31.93
2022-11-27T06:21:09.072Z,29.73
2022-11-27T06:23:36.203Z,31.27
2022-11-27T06:26:16.674Z,27.83
2022-11-27T06:28:43.817Z,25.33
2022-11-27T06:31:17.299Z,24.50
2022-11-27T06:33:44.963Z,23.27
2022-11-27T06:36:11.804Z,24.57
2022-11-27T06:38:39.591Z,23.83
2022-11-27T06:41:07.736Z,25.37
2022-11-27T06:43:35.431Z,27.33
2022-11-27T06:46:03.612Z,27.67
2022-11-27T06:48:30.738Z,26.20
2022-11-27T06:51:01.338Z,23.27
2022-11-27T06:53:29.077Z,25.27
2022-11-27T06:55:56.128Z,27.20
2022-11-27T06:58:27.759Z,22.83
2022-11-27T07:01:01.943Z,24.07
2022-11-27T07:03:28.921Z,27.80
2022-11-27T07:05:55.849Z,26.57
2022-11-27T07:08:22.735Z,26.10
2022-11-27T07:10:49.542Z,27.00
2022-11-27T07:13:16.527Z,27.97
2022-11-27T07:15:43.624Z,28.00
2022-11-27T07:18:10.906Z,27.87
2022-11-27T07:20:37.723Z,31.30
2022-11-27T07:23:04.558Z,28.07
2022-11-27T07:25:31.349Z,28.53
2022-11-27T07:27:58.187Z,28.70
2022-11-27T07:30:25.055Z,25.83
2022-11-27T07:32:51.982Z,27.90
2022-11-27T07:35:18.878Z,28.90
2022-11-27T07:37:45.761Z,28.53
2022-11-27T07:40:14.839Z,28.57
2022-11-27T07:42:42.061Z,27.10
2022-11-27T07:45:10.240Z,25.97
2022-11-27T07:47:37.411Z,29.40
2022-11-27T07:50:05.908Z,28.93
2022-11-27T07:52:39.539Z,27.33
2022-11-27T07:55:08.454Z,33.17
2022-11-27T07:57:35.259Z,37.10
2022-11-27T08:00:02.092Z,32.87
2022-11-27T08:02:31.346Z,30.67
2022-11-27T08:04:58.244Z,30.80
2022-11-27T08:07:28.960Z,26.73
2022-11-27T08:09:57.790Z,24.70
2022-11-27T08:12:25.286Z,25.70
2022-11-27T08:14:52.138Z,26.40
2022-11-27T08:17:18.945Z,26.63
2022-11-27T08:19:45.897Z,27.43
2022-11-27T08:22:13.564Z,27.43
2022-11-27T08:24:42.716Z,29.27
2022-11-27T08:27:10.251Z,34.10
2022-11-27T08:29:37.390Z,34.33
2022-11-27T08:32:04.674Z,28.23
2022-11-27T08:34:31.588Z,32.27
2022-11-27T08:36:58.378Z,38.10
2022-11-27T08:39:26.812Z,28.00
2022-11-27T08:41:54.020Z,27.10
2022-11-27T08:44:20.940Z,26.20
2022-11-27T08:46:47.712Z,24.27
2022-11-27T08:49:14.694Z,23.00
2022-11-27T08:51:41.520Z,25.07
2022-11-27T08:54:08.476Z,25.67
2022-11-27T08:56:36.262Z,21.70
2022-11-27T08:59:03.232Z,23.03
2022-11-27T09:01:31.926Z,22.40
2022-11-27T09:03:59.629Z,20.40
2022-11-27T09:06:28.411Z,22.30
2022-11-27T09:08:59.306Z,21.67
2022-11-27T09:11:26.701Z,20.90
2022-11-27T09:13:53.953Z,19.30
2022-11-27T09:16:22.223Z,19.57
2022-11-27T09:18:50.491Z,22.37
2022-11-27T09:21:18.525Z,19.73
2022-11-27T09:23:45.601Z,21.63
2022-11-27T09:26:14.299Z,17.63
2022-11-27T09:28:41.727Z,20.53
2022-11-27T09:31:09.710Z,18.90
2022-11-27T09:33:37.596Z,22.83
2022-11-27T09:36:06.309Z,20.30
2022-11-27T09:38:33.127Z,22.47
2022-11-27T09:41:22.272Z,22.40
2022-11-27T09:44:01.172Z,21.20
2022-11-27T09:46:32.839Z,18.90
2022-11-27T09:49:02.602Z,17.53
2022-11-27T09:51:35.864Z,15.53
2022-11-27T09:54:06.927Z,16.80
2022-11-27T09:56:35.035Z,14.67
2022-11-27T09:59:02.566Z,16.77
2022-11-27T10:01:42.935Z,14.50
2022-11-27T10:04:16.725Z,15.87
2022-11-27T10:06:43.814Z,15.37
2022-11-27T10:09:12.456Z,17.67
2022-11-27T10:11:39.355Z,16.27
2022-11-27T10:14:06.194Z,16.33
2022-11-27T10:16:44.859Z,16.20
2022-11-27T10:19:22.013Z,17.00
2022-11-27T10:21:57.328Z,16.60
2022-11-27T10:24:36.784Z,17.53
2022-11-27T10:27:09.359Z,18.03
2022-11-27T10:29:39.800Z,19.30
2022-11-27T10:32:39.600Z,18.40
2022-11-27T10:35:04.411Z,16.40
2022-11-27T10:37:38.545Z,17.10
2022-11-27T10:40:05.400Z,20.07
2022-11-27T10:42:35.129Z,19.33
2022-11-27T10:45:03.792Z,20.37
2022-11-27T10:47:33.857Z,20.80
2022-11-27T10:50:01.179Z,23.47
2022-11-27T10:52:28.144Z,22.03
2022-11-27T10:55:00.470Z,24.23
2022-11-27T10:57:30.140Z,22.37
2022-11-27T11:00:10.638Z,22.07
2022-11-27T11:02:39.074Z,23.00
2022-11-27T11:08:06.820Z,22.80
2022-11-27T11:10:35.297Z,22.13
2022-11-27T11:13:11.364Z,20.97
2022-11-27T11:16:04.332Z,20.93
2022-11-27T11:18:32.917Z,22.23
2022-11-27T11:21:05.200Z,21.77
2022-11-27T11:23:33.978Z,19.90
2022-11-27T11:26:03.290Z,19.33
2022-11-27T11:28:32.966Z,22.00
2022-11-27T11:31:09.310Z,25.63
2022-11-27T11:33:39.660Z,22.80
2022-11-27T11:36:11.698Z,23.33
2022-11-27T11:38:42.380Z,24.47
2022-11-27T11:41:09.871Z,26.77
2022-11-27T11:43:37.402Z,25.47
2022-11-27T11:46:17.904Z,25.10
2022-11-27T11:48:55.412Z,21.00
2022-11-27T11:51:34.455Z,24.73
2022-11-27T11:54:24.565Z,23.53
2022-11-27T11:56:52.956Z,23.43
2022-11-27T11:59:31.441Z,19.63
2022-11-27T12:02:14.687Z,21.47
2022-11-27T12:05:03.716Z,21.87
2022-11-27T12:07:36.459Z,21.30
2022-11-27T12:10:03.625Z,20.67
2022-11-27T12:12:33.487Z,20.40
2022-11-27T12:15:03.688Z,15.63
2022-11-27T12:17:48.890Z,16.53
2022-11-27T12:20:17.674Z,17.53
2022-11-27T12:23:08.477Z,18.00
2022-11-27T12:25:42.025Z,18.20
2022-11-27T12:28:09.597Z,18.43
2022-11-27T12:30:43.985Z,18.63
2022-11-27T12:33:29.945Z,14.23
2022-11-27T12:35:59.469Z,16.00
2022-11-27T12:38:32.028Z,16.27
2022-11-27T12:41:34.303Z,15.73
2022-11-27T12:44:01.706Z,15.70
2022-11-27T12:46:52.312Z,15.07
2022-11-27T12:49:22.588Z,17.43
2022-11-27T12:51:54.524Z,15.30
2022-11-27T12:54:25.779Z,14.13
2022-11-27T12:56:56.662Z,14.30
2022-11-27T12:59:23.503Z,16.43
2022-11-27T13:02:01.679Z,15.23
2022-11-27T13:04:33.960Z,17.83
2022-11-27T13:07:06.892Z,16.40
2022-11-27T13:09:42.758Z,15.00
2022-11-27T13:12:11.721Z,15.37
2022-11-27T13:14:39.209Z,14.57
2022-11-27T13:17:09.027Z,14.90
2022-11-27T13:19:42.727Z,16.67
2022-11-27T13:22:12.067Z,15.57
2022-11-27T13:24:39.218Z,17.57
2022-11-27T13:27:06.284Z,15.57
2022-11-27T13:29:39.451Z,15.47
2022-11-27T13:32:07.846Z,16.23
2022-11-27T13:34:42.066Z,14.73
2022-11-27T13:37:09.961Z,17.33
2022-11-27T13:39:42.335Z,16.77
2022-11-27T13:42:16.555Z,16.30
2022-11-27T13:44:45.494Z,16.83
2022-11-27T13:47:14.641Z,18.87
2022-11-27T13:49:43.553Z,26.27
2022-11-27T13:52:12.659Z,22.60
2022-11-27T13:54:40.075Z,24.97
2022-11-27T13:57:14.768Z,23.57
2022-11-27T13:59:41.783Z,21.30
2022-11-27T14:02:09.300Z,18.27
2022-11-27T14:04:50.596Z,19.97
2022-11-27T14:07:21.753Z,17.90
2022-11-27T14:09:56.537Z,17.90
2022-11-27T14:12:33.507Z,17.10
2022-11-27T14:15:18.671Z,16.20
2022-11-27T14:17:46.762Z,15.77
2022-11-27T14:20:16.972Z,16.17
2022-11-27T14:23:11.096Z,16.10
2022-11-27T14:25:38.823Z,15.23
2022-11-27T14:28:22.252Z,16.50
2022-11-27T14:30:50.466Z,16.63
2022-11-27T14:33:19.122Z,16.93
2022-11-27T14:35:53.455Z,16.83
2022-11-27T14:38:20.482Z,17.20
2022-11-27T14:40:47.747Z,18.00
2022-11-27T14:43:16.171Z,21.33
2022-11-27T14:45:44.714Z,25.43
2022-11-27T14:48:25.260Z,29.40
2022-11-27T14:50:53.219Z,24.90
2022-11-27T14:53:21.020Z,25.60
2022-11-27T14:55:49.462Z,28.73
2022-11-27T14:58:25.033Z,27.37
2022-11-27T15:00:55.059Z,23.33
2022-11-27T15:03:22.322Z,21.70
2022-11-27T15:05:55.287Z,23.27
2022-11-27T15:08:22.360Z,24.87
2022-11-27T15:10:52.593Z,32.47
2022-11-27T15:13:30.365Z,33.53
2022-11-27T15:16:05.585Z,30.87
2022-11-27T15:18:34.087Z,30.57
2022-11-27T15:21:02.285Z,27.93
2022-11-27T15:23:30.437Z,43.07
2022-11-27T15:26:00.362Z,21.77
2022-11-27T15:28:35.308Z,16.67
2022-11-27T15:31:03.956Z,15.77
2022-11-27T15:33:32.721Z,19.10
2022-11-27T15:36:14.543Z,17.87
2022-11-27T15:38:41.749Z,22.77
2022-11-27T15:41:22.662Z,21.77
2022-11-27T15:43:49.646Z,28.17
2022-11-27T15:46:19.925Z,25.70
2022-11-27T15:48:46.868Z,33.30
2022-11-27T15:51:13.682Z,32.27
2022-11-27T15:53:40.483Z,37.30
2022-11-27T15:56:07.522Z,35.03
2022-11-27T15:58:34.289Z,31.83
2022-11-27T16:01:01.221Z,28.90
2022-11-27T16:03:28.814Z,32.00
2022-11-27T16:05:55.819Z,35.87
2022-11-27T16:08:22.611Z,24.73
2022-11-27T16:10:49.490Z,24.50
2022-11-27T16:13:16.299Z,28.00
2022-11-27T16:15:43.163Z,37.37
2022-11-27T16:18:10.928Z,34.53
2022-11-27T16:20:37.674Z,42.67
2022-11-27T16:23:04.595Z,33.43
2022-11-27T16:25:31.367Z,33.67
2022-11-27T16:28:02.770Z,28.90
2022-11-27T16:30:30.289Z,39.87
2022-11-27T16:32:57.665Z,37.90
2022-11-27T16:35:25.154Z,40.50
2022-11-27T16:37:52.408Z,43.53
2022-11-27T16:40:19.915Z,41.63
2022-11-27T16:42:47.292Z,42.73
2022-11-27T16:45:14.085Z,41.03
2022-11-27T16:47:40.879Z,47.17
2022-11-27T16:50:10.508Z,34.80
2022-11-27T16:52:37.425Z,36.00
2022-11-27T16:55:04.761Z,47.77
2022-11-27T16:57:32.021Z,47.93
2022-11-27T16:59:59.019Z,52.30
2022-11-27T17:02:29.013Z,38.57
2022-11-27T17:04:56.282Z,32.57
2022-11-27T17:07:23.107Z,33.57
2022-11-27T17:09:50.024Z,34.67
2022-11-27T17:12:16.931Z,43.37
2022-11-27T17:14:44.037Z,42.27
2022-11-27T17:17:10.943Z,34.17
2022-11-27T17:19:37.770Z,35.03
2022-11-27T17:22:04.910Z,34.60
2022-11-27T17:24:36.190Z,34.60
2022-11-27T17:27:05.817Z,32.00
2022-11-27T17:29:35.410Z,30.07
2022-11-27T17:32:03.254Z,25.17
2022-11-27T17:34:30.292Z,27.53
2022-11-27T17:36:58.814Z,28.33
2022-11-27T17:39:26.537Z,27.07
2022-11-27T17:41:53.378Z,29.07
2022-11-27T17:44:20.208Z,30.50
2022-11-27T17:46:50.230Z,31.70
2022-11-27T17:49:19.698Z,27.47
2022-11-27T17:51:48.860Z,23.97
2022-11-27T17:54:16.009Z,18.47
2022-11-27T17:56:43.300Z,17.70
2022-11-27T17:59:10.672Z,19.43
2022-11-27T18:01:38.623Z,19.10
2022-11-27T18:04:06.178Z,19.10
2022-11-27T18:06:33.586Z,18.87
2022-11-27T18:09:01.205Z,20.63
2022-11-27T18:11:29.529Z,27.77
2022-11-27T18:13:58.969Z,25.73
2022-11-27T18:16:29.305Z,21.43
2022-11-27T18:18:57.100Z,18.70
2022-11-27T18:21:27.257Z,17.87
2022-11-27T18:24:21.926Z,18.97
2022-11-27T18:29:28.790Z,18.07
2022-11-27T18:31:55.708Z,17.90
2022-11-27T18:34:22.592Z,19.43
2022-11-27T18:36:49.433Z,36.00
2022-11-27T18:39:16.345Z,36.37
2022-11-27T18:41:43.131Z,31.67
2022-11-27T18:44:10.105Z,30.57
2022-11-27T18:46:37.986Z,27.37
2022-11-27T18:49:05.148Z,20.23
2022-11-27T18:51:32.388Z,20.03
2022-11-27T18:53:59.556Z,18.60
2022-11-27T18:56:28.316Z,20.17
2022-11-27T18:58:55.208Z,20.77
2022-11-27T19:01:23.485Z,21.27
2022-11-27T19:03:50.686Z,20.37
2022-11-27T19:06:19.394Z,20.60
2022-11-27T19:08:47.136Z,21.10
2022-11-27T19:11:18.800Z,21.50
2022-11-27T19:13:46.163Z,23.27
2022-11-27T19:16:14.367Z,21.87
2022-11-27T19:18:41.966Z,21.57
2022-11-27T19:21:09.922Z,22.33
2022-11-27T19:23:39.328Z,21.33
2022-11-27T19:26:08.226Z,20.70
2022-11-27T19:28:35.609Z,21.90
2022-11-27T19:31:07.559Z,23.53
2022-11-27T19:33:36.343Z,28.57
2022-11-27T19:36:08.809Z,31.77
2022-11-27T19:38:42.574Z,34.53
2022-11-27T19:41:14.353Z,30.40
2022-11-27T19:43:41.291Z,26.80
2022-11-27T19:46:14.534Z,29.90
2022-11-27T19:48:41.532Z,30.33
2022-11-27T19:51:08.331Z,32.90
2022-11-27T19:53:35.382Z,29.17
2022-11-27T19:56:02.148Z,28.37
2022-11-27T19:58:29.066Z,43.83
2022-11-27T20:01:12.039Z,37.40
2022-11-27T20:03:39.186Z,43.33
2022-11-27T20:06:07.143Z,26.70
2022-11-27T20:08:34.863Z,24.47
2022-11-27T20:11:02.589Z,26.73
2022-11-27T20:13:29.569Z,27.00
2022-11-27T20:15:56.592Z,27.50
2022-11-27T20:18:23.528Z,25.07
2022-11-27T20:20:50.385Z,22.00
2022-11-27T20:23:17.330Z,24.77
2022-11-27T20:25:44.217Z,23.37
2022-11-27T20:28:11.253Z,23.03
2022-11-27T20:30:41.133Z,23.23
2022-11-27T20:33:08.680Z,22.00
2022-11-27T20:35:35.845Z,22.30
2022-11-27T20:38:02.952Z,21.23
2022-11-27T20:40:30.185Z,21.83
2022-11-27T20:42:57.012Z,23.43
2022-11-27T20:45:23.911Z,23.13
2022-11-27T20:47:50.710Z,22.87
2022-11-27T20:50:19.862Z,21.90
2022-11-27T20:52:48.116Z,21.83
2022-11-27T20:55:14.965Z,23.53
2022-11-27T20:57:42.582Z,23.27
2022-11-27T21:00:10.173Z,24.43
2022-11-27T21:02:41.165Z,26.63
2022-11-27T21:05:08.526Z,26.60
2022-11-27T21:07:36.598Z,29.40
2022-11-27T21:10:06.513Z,30.80
2022-11-27T21:12:33.615Z,29.87
2022-11-27T21:15:00.552Z,28.67
2022-11-27T21:17:27.730Z,31.20
2022-11-27T21:19:54.627Z,31.43
2022-11-27T21:22:22.563Z,28.90
2022-11-27T21:24:50.447Z,29.67
2022-11-27T21:27:17.603Z,29.53
2022-11-27T21:29:44.512Z,26.97
2022-11-27T21:32:11.975Z,26.30
2022-11-27T21:34:39.520Z,24.80
2022-11-27T21:37:06.857Z,23.17
2022-11-27T21:39:34.370Z,22.43
2022-11-27T21:42:01.111Z,22.37
2022-11-27T21:44:28.013Z,22.07
2022-11-27T21:46:56.936Z,21.30
2022-11-27T21:49:24.273Z,22.10
2022-11-27T21:51:54.710Z,21.97
2022-11-27T21:54:29.437Z,21.93
2022-11-27T21:56:56.592Z,22.93
2022-11-27T21:59:24.322Z,22.17
2022-11-27T22:01:51.586Z,22.07
2022-11-27T22:04:18.725Z,29.03
2022-11-27T22:06:45.890Z,32.00
2022-11-27T22:09:15.692Z,25.43
2022-11-27T22:11:43.918Z,21.57
2022-11-27T22:14:11.300Z,20.27
2022-11-27T22:16:44.811Z,22.63
2022-11-27T22:19:14.444Z,22.07
2022-11-27T22:21:41.598Z,21.47
2022-11-27T22:24:13.512Z,25.97
2022-11-27T22:26:45.115Z,22.90
2022-11-27T22:29:13.098Z,25.20
2022-11-27T22:31:40.212Z,23.60
2022-11-27T22:34:07.094Z,24.93
2022-11-27T22:36:34.779Z,23.77
2022-11-27T22:39:06.042Z,25.73
2022-11-27T22:41:36.546Z,23.40
2022-11-27T22:44:12.234Z,26.70
2022-11-27T22:46:40.467Z,29.47
2022-11-27T22:49:07.546Z,28.60
2022-11-27T22:51:35.579Z,30.83
2022-11-27T22:54:02.972Z,31.97
2022-11-27T22:56:30.093Z,30.23
2022-11-27T22:59:24.830Z,28.47
2022-11-27T23:01:46.175Z,30.80
2022-11-27T23:04:13.282Z,29.37
2022-11-27T23:06:40.209Z,30.13
2022-11-27T23:09:07.751Z,30.40
2022-11-27T23:11:34.672Z,30.50
2022-11-27T23:14:01.738Z,28.50
2022-11-27T23:16:28.634Z,32.03
2022-11-27T23:18:55.541Z,28.93
2022-11-27T23:21:24.173Z,28.30
2022-11-27T23:23:51.366Z,29.77
2022-11-27T23:26:19.906Z,29.90
2022-11-27T23:28:47.679Z,29.27
2022-11-27T23:31:29.325Z,30.47
2022-11-27T23:33:56.706Z,27.83
2022-11-27T23:36:23.502Z,30.03
2022-11-27T23:38:50.366Z,31.47
2022-11-27T23:41:18.441Z,31.17
2022-11-27T23:43:45.293Z,32.60
2022-11-27T23:46:14.124Z,29.97
2022-11-27T23:48:41.286Z,29.33
2022-11-27T23:51:09.097Z,29.33
2022-11-27T23:53:36.925Z,27.97
2022-11-27T23:56:04.586Z,27.20
2022-11-27T23:58:31.542Z,24.40
